Time;durP1;ratioP1;P1;durP2;ratioP2;P2;SDS_P1;SDS_P2;PMS_P1;PMS_P2;Temp;Humidity;BMP_temperature;BMP_pressure;BME280_temperature;BME280_humidity;BME280_pressure;Samples;Min_cycle;Max_cycle;Signal;HPM_P1;HPM_P2
2022/06/25 00:01:22;;;;;;;5.10;1.30;;;18.90;99.90;;;;;;5071602;28;20264;-65
2022/06/25 00:03:50;;;;;;;1.60;0.83;;;19.20;99.90;;;;;;5071913;28;20210;-67
2022/06/25 00:06:18;;;;;;;12.63;1.47;;;19.30;99.90;;;;;;5072221;28;20183;-66
2022/06/25 00:08:46;;;;;;;6.87;1.10;;;19.20;99.90;;;;;;5072812;28;20180;-66
2022/06/25 00:14:13;;;;;;;23.63;2.20;;;19.50;99.90;;;;;;5073784;28;20183;-67
2022/06/25 00:16:40;;;;;;;5.30;1.20;;;19.30;99.90;;;;;;5076266;28;20641;-67
2022/06/25 00:19:07;;;;;;;28.97;2.60;;;19.50;99.90;;;;;;5076506;28;20728;-66
2022/06/25 00:21:35;;;;;;;18.40;1.87;;;19.70;99.90;;;;;;5075810;28;20241;-66
2022/06/25 00:24:02;;;;;;;3.47;0.90;;;20.10;99.90;;;;;;5075482;28;20675;-64
2022/06/25 00:26:30;;;;;;;13.17;1.50;;;20.40;99.90;;;;;;5084094;28;20223;-66
2022/06/25 00:28:57;;;;;;;3.10;1.00;;;20.00;99.90;;;;;;5095383;28;20183;-66
2022/06/25 00:31:24;;;;;;;5.97;1.00;;;20.30;99.90;;;;;;5076540;28;20546;-67
2022/06/25 00:33:55;;;;;;;2.37;0.80;;;20.60;99.90;;;;;;5095901;28;20182;-68
2022/06/25 00:36:22;;;;;;;1.53;0.83;;;20.80;99.90;;;;;;5096657;28;20269;-68
2022/06/25 00:38:49;;;;;;;1.60;0.80;;;20.90;99.90;;;;;;5096478;28;20204;-68
2022/06/25 00:41:17;;;;;;;5.07;1.23;;;21.10;99.90;;;;;;5096530;28;20209;-67
2022/06/25 00:43:44;;;;;;;4.27;1.30;;;21.00;99.90;;;;;;5078203;28;20226;-69
2022/06/25 00:46:11;;;;;;;2.60;1.00;;;21.20;99.90;;;;;;5096410;28;20179;-69
2022/06/25 00:48:39;;;;;;;2.03;0.93;;;21.70;99.90;;;;;;5077970;28;20215;-65
2022/06/25 00:51:11;;;;;;;1.40;0.83;;;21.50;99.90;;;;;;5096123;28;20185;-68
2022/06/25 00:53:43;;;;;;;3.00;1.20;;;21.20;99.90;;;;;;5096212;28;20176;-66
2022/06/25 00:56:12;;;;;;;4.23;0.70;;;21.40;99.90;;;;;;5096155;28;20633;-68
2022/06/25 00:58:41;;;;;;;2.20;1.10;;;21.90;99.90;;;;;;5095965;28;20651;-66
2022/06/25 01:01:09;;;;;;;2.57;0.97;;;22.10;99.90;;;;;;5096079;28;20228;-65
2022/06/25 01:03:38;;;;;;;4.13;0.90;;;22.20;99.90;;;;;;5095988;28;20683;-66
2022/06/25 01:06:06;;;;;;;2.03;0.77;;;22.20;99.90;;;;;;5096100;28;20175;-65
2022/06/25 01:08:34;;;;;;;4.87;0.80;;;21.90;99.90;;;;;;5095889;28;20245;-67
2022/06/25 01:11:02;;;;;;;3.40;0.70;;;22.50;99.90;;;;;;5095941;28;20621;-66
2022/06/25 01:13:30;;;;;;;3.80;0.90;;;22.60;99.90;;;;;;5095631;28;20224;-66
2022/06/25 01:15:58;;;;;;;0.73;0.60;;;22.20;99.90;;;;;;5095961;28;20213;-65
2022/06/25 01:18:25;;;;;;;5.87;2.53;;;22.40;99.90;;;;;;5095735;28;20186;-66
2022/06/25 01:20:52;;;;;;;8.57;2.50;;;22.10;99.90;;;;;;5095851;28;20214;-67
2022/06/25 01:23:20;;;;;;;9.77;7.13;;;22.00;99.90;;;;;;5095361;28;20235;-67
2022/06/25 01:25:47;;;;;;;15.20;10.63;;;22.10;99.90;;;;;;5094386;28;20211;-67
2022/06/25 01:28:14;;;;;;;1.70;1.40;;;22.50;99.90;;;;;;5095601;28;20209;-67
2022/06/25 01:30:42;;;;;;;6.07;3.90;;;22.80;99.90;;;;;;5095516;28;20171;-68
2022/06/25 01:33:09;;;;;;;5.00;3.60;;;23.40;99.90;;;;;;5095593;28;20205;-67
2022/06/25 01:35:37;;;;;;;1.87;0.83;;;23.50;99.90;;;;;;5095615;28;20176;-68
2022/06/25 01:38:04;;;;;;;55.47;41.70;;;23.70;99.90;;;;;;5095408;28;20175;-67
2022/06/25 01:40:33;;;;;;;3.10;1.70;;;23.40;99.90;;;;;;5095463;28;20175;-68
2022/06/25 01:43:01;;;;;;;6.23;3.33;;;23.20;99.90;;;;;;5095193;28;20668;-68
2022/06/25 01:45:28;;;;;;;3.40;3.03;;;23.60;99.90;;;;;;5095118;28;20182;-67
2022/06/25 01:47:56;;;;;;;2.60;2.17;;;23.10;99.90;;;;;;5095742;28;20171;-68
2022/06/25 01:50:24;;;;;;;2.67;1.20;;;23.30;99.90;;;;;;5095037;28;20187;-67
2022/06/25 01:52:52;;;;;;;1.40;0.73;;;23.00;99.90;;;;;;5095078;28;20175;-67
2022/06/25 01:55:20;;;;;;;2.17;0.60;;;23.40;99.90;;;;;;5094912;28;20672;-68
2022/06/25 01:57:49;;;;;;;3.43;0.90;;;23.60;99.90;;;;;;5094815;28;20182;-68
2022/06/25 02:00:20;;;;;;;1.33;1.10;;;23.80;99.90;;;;;;5095040;28;20248;-68
2022/06/25 02:02:48;;;;;;;2.13;0.70;;;23.60;99.90;;;;;;5094813;28;20203;-68
2022/06/25 02:05:17;;;;;;;1.10;0.60;;;23.60;99.90;;;;;;5093153;28;20266;-68
2022/06/25 02:07:45;;;;;;;1.83;0.80;;;23.70;99.90;;;;;;5095026;28;20274;-68
2022/06/25 02:10:12;;;;;;;5.67;1.13;;;23.20;99.90;;;;;;5076514;28;20263;-68
2022/06/25 02:12:40;;;;;;;5.23;0.97;;;23.60;99.90;;;;;;5094442;28;20187;-69
2022/06/25 02:15:08;;;;;;;1.57;0.50;;;23.20;99.90;;;;;;5094690;28;20179;-68
2022/06/25 02:17:35;;;;;;;1.13;0.60;;;23.40;99.90;;;;;;5094464;28;20171;-69
2022/06/25 02:20:02;;;;;;;3.03;0.70;;;23.90;99.90;;;;;;5094525;28;20175;-68
2022/06/25 02:22:32;;;;;;;1.37;0.70;;;23.40;99.90;;;;;;5094493;28;20203;-69
2022/06/25 02:25:00;;;;;;;2.87;0.67;;;23.30;99.90;;;;;;5094351;28;20184;-68
2022/06/25 02:27:27;;;;;;;1.10;0.70;;;23.40;99.90;;;;;;5094640;28;20227;-69
2022/06/25 02:29:54;;;;;;;2.13;1.30;;;22.80;99.90;;;;;;5094341;28;20182;-69
2022/06/25 02:32:22;;;;;;;2.63;1.00;;;22.50;99.90;;;;;;5094255;28;20257;-68
2022/06/25 02:34:49;;;;;;;0.77;0.60;;;22.70;99.90;;;;;;5093943;28;20576;-68
2022/06/25 02:37:16;;;;;;;0.93;0.47;;;23.00;99.90;;;;;;5094264;28;20224;-66
2022/06/25 02:39:44;;;;;;;1.03;0.50;;;22.20;99.90;;;;;;5094119;28;20175;-67
2022/06/25 02:42:11;;;;;;;1.73;0.67;;;22.60;99.90;;;;;;5094000;28;20262;-67
2022/06/25 02:44:41;;;;;;;2.40;0.60;;;22.90;99.90;;;;;;5093918;28;20178;-67
2022/06/25 02:47:08;;;;;;;1.57;0.80;;;22.10;99.90;;;;;;5094191;28;20166;-68
2022/06/25 02:49:37;;;;;;;1.53;1.43;;;21.50;99.90;;;;;;5094139;28;20527;-69
2022/06/25 02:52:05;;;;;;;10.50;5.07;;;22.30;99.90;;;;;;5075443;28;20178;-68
2022/06/25 02:54:36;;;;;;;22.47;12.53;;;22.80;99.90;;;;;;5094097;28;20175;-68
2022/06/25 02:59:49;;;;;;;3.73;1.70;;;22.60;99.90;;;;;;5093860;28;20661;-68
2022/06/25 03:02:17;;;;;;;3.37;1.00;;;22.90;99.90;;;;;;5093470;28;20167;-69
2022/06/25 03:04:45;;;;;;;0.97;0.60;;;22.90;99.90;;;;;;5093821;28;20655;-67
2022/06/25 03:07:13;;;;;;;1.33;0.70;;;22.90;99.90;;;;;;5093511;28;20609;-68
2022/06/25 03:09:41;;;;;;;2.87;0.70;;;23.20;99.90;;;;;;5093577;28;20203;-68
2022/06/25 03:12:09;;;;;;;14.13;11.80;;;23.70;99.90;;;;;;5093536;28;20652;-68
2022/06/25 03:14:36;;;;;;;1.83;1.07;;;23.80;99.90;;;;;;5093689;28;20240;-67
2022/06/25 03:17:04;;;;;;;2.47;1.93;;;24.10;99.90;;;;;;5093400;28;20175;-68
2022/06/25 03:19:32;;;;;;;12.10;10.90;;;24.10;99.90;;;;;;5093520;28;20187;-68
2022/06/25 03:22:00;;;;;;;2.17;1.60;;;24.20;99.90;;;;;;5093380;28;20221;-67
2022/06/25 03:24:28;;;;;;;9.20;7.17;;;24.10;99.90;;;;;;5093384;28;20684;-68
2022/06/25 03:26:55;;;;;;;9.80;6.87;;;23.50;99.90;;;;;;5092901;28;20599;-68
2022/06/25 03:29:23;;;;;;;1.23;0.83;;;23.50;99.90;;;;;;5093456;28;20629;-68
2022/06/25 03:31:51;;;;;;;3.10;2.07;;;23.50;99.90;;;;;;5093200;28;20637;-68
2022/06/25 03:34:18;;;;;;;1.90;1.43;;;23.40;99.90;;;;;;5093349;28;20652;-68
2022/06/25 03:36:46;;;;;;;4.27;3.83;;;23.90;99.90;;;;;;5092988;28;20633;-68
2022/06/25 03:39:14;;;;;;;2.43;1.60;;;23.70;99.90;;;;;;5093687;28;20632;-68
2022/06/25 03:41:42;;;;;;;2.07;1.00;;;23.80;99.90;;;;;;5092988;28;20175;-67
2022/06/25 03:44:11;;;;;;;11.17;10.27;;;23.70;99.90;;;;;;5093051;28;20255;-68
2022/06/25 03:46:41;;;;;;;11.43;10.40;;;23.40;99.90;;;;;;5093294;28;20621;-68
2022/06/25 03:49:09;;;;;;;1.10;0.90;;;23.20;99.90;;;;;;5095518;28;20197;-68
2022/06/25 03:51:37;;;;;;;3.57;1.10;;;23.30;99.90;;;;;;5099835;28;20262;-67
2022/06/25 03:54:04;;;;;;;4.80;2.00;;;23.40;99.90;;;;;;5099987;28;20232;-67
2022/06/25 03:56:32;;;;;;;1.67;0.70;;;23.40;99.90;;;;;;5099897;28;20178;-67
2022/06/25 03:59:00;;;;;;;1.53;0.57;;;23.60;99.90;;;;;;5099799;28;20175;-65
2022/06/25 04:01:28;;;;;;;3.50;1.30;;;22.90;99.90;;;;;;5099699;28;20189;-66
2022/06/25 04:03:55;;;;;;;0.33;0.33;;;23.30;99.90;;;;;;5099670;28;20210;-66
2022/06/25 04:06:23;;;;;;;0.50;0.43;;;23.10;99.90;;;;;;5099766;28;20171;-67
2022/06/25 04:08:51;;;;;;;1.47;0.50;;;23.30;99.90;;;;;;5099811;28;20265;-68
2022/06/25 04:11:19;;;;;;;3.43;0.50;;;23.40;99.90;;;;;;5099710;28;20269;-67
2022/06/25 04:13:46;;;;;;;0.50;0.40;;;22.90;99.90;;;;;;5099726;28;20518;-68
2022/06/25 04:16:14;;;;;;;1.17;0.70;;;22.80;99.90;;;;;;5081369;28;20206;-67
2022/06/25 04:18:42;;;;;;;1.50;0.40;;;23.10;99.90;;;;;;5099486;28;20647;-65
2022/06/25 04:21:10;;;;;;;1.23;0.63;;;22.80;99.90;;;;;;5081394;28;20178;-65
2022/06/25 04:23:37;;;;;;;2.37;1.10;;;23.00;99.90;;;;;;5100025;28;20554;-67
2022/06/25 04:26:05;;;;;;;1.00;0.70;;;23.40;99.90;;;;;;5081559;28;20257;-68
2022/06/25 04:31:19;;;;;;;0.60;0.40;;;22.90;99.90;;;;;;5099627;28;20626;-68
2022/06/25 04:33:46;;;;;;;1.17;0.60;;;22.50;99.90;;;;;;5099520;28;20183;-66
2022/06/25 04:36:14;;;;;;;1.27;0.50;;;22.10;99.90;;;;;;5099391;28;20202;-68
2022/06/25 04:38:45;;;;;;;2.10;0.80;;;22.00;99.90;;;;;;5099049;28;20214;-68
2022/06/25 04:41:13;;;;;;;1.00;0.60;;;22.40;99.90;;;;;;5099249;28;20254;-66
2022/06/25 04:43:41;;;;;;;1.47;0.60;;;22.60;99.90;;;;;;5099177;28;20214;-68
2022/06/25 04:46:08;;;;;;;0.80;0.60;;;22.80;99.90;;;;;;5099490;28;20179;-68
2022/06/25 04:48:36;;;;;;;3.07;0.70;;;22.70;99.90;;;;;;5099319;28;20178;-66
2022/06/25 04:51:04;;;;;;;0.70;0.60;;;22.70;99.90;;;;;;5099370;28;20258;-68
2022/06/25 04:53:32;;;;;;;0.90;0.60;;;22.60;99.90;;;;;;5099380;28;20183;-68
2022/06/25 04:56:00;;;;;;;1.47;0.57;;;22.40;99.90;;;;;;5099330;28;20175;-65
2022/06/25 04:58:27;;;;;;;1.53;0.50;;;22.50;99.90;;;;;;5099152;28;20231;-68
2022/06/25 05:00:55;;;;;;;0.83;0.60;;;22.40;99.90;;;;;;5096340;28;20179;-68
2022/06/25 05:03:23;;;;;;;0.93;0.50;;;22.70;99.90;;;;;;5096167;28;20203;-66
2022/06/25 05:05:50;;;;;;;2.43;0.57;;;22.80;99.90;;;;;;5077839;28;20182;-65
2022/06/25 05:08:18;;;;;;;1.80;0.70;;;22.40;99.90;;;;;;5077649;28;20206;-67
2022/06/25 05:10:46;;;;;;;0.40;0.40;;;22.40;99.90;;;;;;5095828;28;20167;-69
2022/06/25 05:13:13;;;;;;;1.57;0.50;;;22.70;99.90;;;;;;5095976;28;20167;-66
2022/06/25 05:15:43;;;;;;;1.10;0.70;;;22.50;99.90;;;;;;5095734;28;20178;-68
2022/06/25 05:18:12;;;;;;;1.40;0.53;;;21.90;99.90;;;;;;5095641;28;20247;-68
2022/06/25 05:20:44;;;;;;;0.57;0.47;;;21.50;99.90;;;;;;5095523;28;20654;-66
2022/06/25 05:23:13;;;;;;;0.47;0.37;;;21.00;99.90;;;;;;5095516;28;20697;-68
2022/06/25 05:25:42;;;;;;;2.07;0.50;;;20.80;99.90;;;;;;5095418;28;20624;-68
2022/06/25 05:28:10;;;;;;;2.63;0.60;;;20.50;99.90;;;;;;5078308;28;20214;-66
2022/06/25 05:30:37;;;;;;;3.13;0.73;;;20.40;99.90;;;;;;5095616;28;20183;-68
2022/06/25 05:33:04;;;;;;;4.53;1.03;;;20.70;99.90;;;;;;5095644;28;20175;-68
2022/06/25 05:35:32;;;;;;;1.20;0.93;;;20.50;99.90;;;;;;5095413;28;20178;-66
2022/06/25 05:37:59;;;;;;;2.50;0.87;;;20.20;99.90;;;;;;5095237;28;20229;-66
2022/06/25 05:40:26;;;;;;;1.27;0.60;;;19.80;99.90;;;;;;5095292;28;20262;-68
2022/06/25 05:42:54;;;;;;;0.80;0.53;;;19.70;99.90;;;;;;5095392;28;20214;-67
2022/06/25 05:45:21;;;;;;;2.13;0.80;;;19.60;99.90;;;;;;5095402;28;20180;-66
2022/06/25 05:47:48;;;;;;;1.93;0.80;;;19.60;99.90;;;;;;5095202;28;20653;-68
2022/06/25 05:50:16;;;;;;;2.43;1.80;;;19.60;99.90;;;;;;5095116;28;20244;-66
2022/06/25 05:52:43;;;;;;;2.30;1.50;;;19.50;99.90;;;;;;5095115;28;20183;-66
2022/06/25 05:55:12;;;;;;;1.80;1.10;;;19.40;99.90;;;;;;5095155;28;20172;-67
2022/06/25 05:57:40;;;;;;;1.80;0.87;;;19.30;99.90;;;;;;5094999;28;20184;-68
2022/06/25 06:00:11;;;;;;;1.73;1.10;;;19.20;99.90;;;;;;5095327;28;20645;-68
2022/06/25 06:02:38;;;;;;;1.47;1.23;;;19.20;99.90;;;;;;5094921;28;20203;-67
2022/06/25 06:05:06;;;;;;;2.70;0.80;;;19.20;99.90;;;;;;5095017;28;20214;-66
2022/06/25 06:07:33;;;;;;;1.37;0.60;;;19.10;99.90;;;;;;5094976;28;20182;-67
2022/06/25 06:10:01;;;;;;;1.23;1.00;;;19.20;99.90;;;;;;5094700;28;20177;-67
2022/06/25 06:12:28;;;;;;;2.23;1.30;;;19.00;99.90;;;;;;5094605;28;20177;-66
2022/06/25 06:14:56;;;;;;;1.93;1.30;;;19.00;99.90;;;;;;5094610;28;20171;-67
2022/06/25 06:17:23;;;;;;;0.70;0.70;;;18.80;99.90;;;;;;5094586;28;20572;-64
2022/06/25 06:19:51;;;;;;;2.10;0.80;;;18.70;99.90;;;;;;5095245;28;20210;-67
2022/06/25 06:22:18;;;;;;;1.40;0.70;;;18.70;99.90;;;;;;5094643;28;20711;-67
2022/06/25 06:24:45;;;;;;;0.60;0.40;;;18.60;99.90;;;;;;5094738;28;20185;-65
2022/06/25 06:27:13;;;;;;;2.07;1.30;;;18.50;99.90;;;;;;5094195;28;20293;-66
2022/06/25 06:29:40;;;;;;;0.83;0.77;;;18.30;99.90;;;;;;5094422;28;20188;-65
2022/06/25 06:32:08;;;;;;;0.67;0.63;;;18.10;99.90;;;;;;5094444;28;20179;-67
2022/06/25 06:34:35;;;;;;;1.07;0.83;;;17.90;99.90;;;;;;5094500;28;20217;-65
2022/06/25 06:37:03;;;;;;;5.67;3.70;;;17.70;99.90;;;;;;5094156;28;20168;-68
2022/06/25 06:39:30;;;;;;;5.00;2.40;;;17.60;99.90;;;;;;5094206;28;20214;-68
2022/06/25 06:41:57;;;;;;;5.23;3.20;;;17.50;99.90;;;;;;5094086;28;20173;-65
2022/06/25 06:44:25;;;;;;;2.97;2.13;;;17.30;99.90;;;;;;5094260;28;20558;-66
2022/06/25 06:46:52;;;;;;;9.90;7.60;;;17.20;99.90;;;;;;5094075;28;20178;-66
2022/06/25 06:49:19;;;;;;;5.67;4.00;;;17.00;99.90;;;;;;5094115;28;20177;-65
2022/06/25 06:51:47;;;;;;;3.77;3.07;;;17.00;99.90;;;;;;5094079;28;20175;-65
2022/06/25 06:54:14;;;;;;;5.40;3.40;;;16.90;99.90;;;;;;5094209;28;20171;-66
2022/06/25 06:56:42;;;;;;;3.63;2.20;;;16.70;99.90;;;;;;5093921;28;20254;-66
2022/06/25 06:59:09;;;;;;;2.20;1.83;;;16.50;99.90;;;;;;5094122;28;20175;-65
2022/06/25 07:01:36;;;;;;;4.27;2.77;;;16.30;99.90;;;;;;5093718;28;20691;-67
2022/06/25 07:04:04;;;;;;;1.90;1.43;;;16.10;99.90;;;;;;5093774;28;20703;-67
2022/06/25 07:06:31;;;;;;;4.77;1.90;;;15.90;99.90;;;;;;5093881;28;20171;-66
2022/06/25 07:08:58;;;;;;;3.33;2.23;;;15.70;99.90;;;;;;5093625;28;20194;-67
2022/06/25 07:11:29;;;;;;;1.90;1.30;;;15.50;99.90;;;;;;5093884;28;20175;-67
2022/06/25 07:13:59;;;;;;;3.47;1.70;;;15.30;99.90;;;;;;5093849;28;20175;-65
2022/06/25 07:16:27;;;;;;;2.53;1.17;;;15.10;99.90;;;;;;5094059;28;20171;-68
2022/06/25 07:18:56;;;;;;;2.90;1.20;;;15.00;99.90;;;;;;5093435;28;20167;-67
2022/06/25 07:21:24;;;;;;;1.60;1.13;;;14.90;99.90;;;;;;5093539;28;20167;-66
2022/06/25 07:23:52;;;;;;;1.73;1.10;;;14.80;99.90;;;;;;5092708;28;20308;-67
2022/06/25 07:26:20;;;;;;;1.67;1.27;;;14.60;99.90;;;;;;5093304;28;20213;-65
2022/06/25 07:28:48;;;;;;;1.47;1.20;;;14.40;99.90;;;;;;5075678;28;20182;-65
2022/06/25 07:31:16;;;;;;;4.67;1.53;;;14.40;99.90;;;;;;5093359;28;20175;-64
2022/06/25 07:33:43;;;;;;;2.53;1.30;;;14.20;99.90;;;;;;5093606;28;20663;-66
2022/06/25 07:36:10;;;;;;;2.20;1.30;;;14.10;99.90;;;;;;5093472;28;20179;-66
2022/06/25 07:38:38;;;;;;;4.70;2.00;;;14.00;99.90;;;;;;5093230;28;20180;-65
2022/06/25 07:41:05;;;;;;;6.23;2.43;;;14.00;99.90;;;;;;5093160;28;20605;-67
2022/06/25 07:43:33;;;;;;;4.93;3.07;;;14.00;99.90;;;;;;5097939;28;20741;-67
2022/06/25 07:46:00;;;;;;;4.10;2.77;;;13.90;99.90;;;;;;5093623;28;20636;-65
2022/06/25 07:48:28;;;;;;;5.80;3.93;;;13.90;99.90;;;;;;5093445;28;20193;-65
2022/06/25 07:53:41;;;;;;;10.10;5.63;;;13.80;99.90;;;;;;5093660;28;20218;-66
2022/06/25 07:56:08;;;;;;;14.20;6.97;;;13.80;99.90;;;;;;5093430;28;20186;-67
2022/06/25 07:58:35;;;;;;;12.73;7.50;;;13.70;99.90;;;;;;5093278;28;20174;-66
2022/06/25 08:01:03;;;;;;;10.00;7.40;;;13.70;99.90;;;;;;5093209;28;20175;-65
2022/06/25 08:03:31;;;;;;;10.37;4.73;;;13.70;99.90;;;;;;5093087;28;20270;-67
2022/06/25 08:05:59;;;;;;;10.63;4.87;;;13.60;99.90;;;;;;5093288;28;20633;-65
2022/06/25 08:08:29;;;;;;;7.73;4.60;;;13.60;99.90;;;;;;5093191;28;20175;-65
2022/06/25 08:10:57;;;;;;;8.10;5.60;;;13.60;99.90;;;;;;5093165;28;20182;-67
2022/06/25 08:13:26;;;;;;;8.87;4.97;;;13.50;99.90;;;;;;5092939;28;20657;-68
2022/06/25 08:15:54;;;;;;;7.83;5.40;;;13.50;99.90;;;;;;5093029;28;20179;-66
2022/06/25 08:18:22;;;;;;;7.93;5.10;;;13.50;99.90;;;;;;5092720;28;20189;-67
2022/06/25 08:20:50;;;;;;;12.17;7.40;;;13.50;99.90;;;;;;5093005;28;20173;-66
2022/06/25 08:23:17;;;;;;;10.00;6.17;;;13.40;99.90;;;;;;5092747;28;20260;-66
2022/06/25 08:25:45;;;;;;;8.40;6.27;;;13.30;99.90;;;;;;5092895;28;20214;-66
2022/06/25 08:28:12;;;;;;;9.30;8.10;;;13.30;99.90;;;;;;5093125;28;20179;-68
2022/06/25 08:30:42;;;;;;;15.37;9.60;;;13.10;99.90;;;;;;5092682;28;20273;-65
2022/06/25 08:33:10;;;;;;;13.77;9.17;;;13.00;99.90;;;;;;5092955;28;20554;-66
2022/06/25 08:35:38;;;;;;;16.93;8.87;;;12.90;99.90;;;;;;5094419;28;20543;-68
2022/06/25 08:38:05;;;;;;;11.87;8.40;;;12.80;99.90;;;;;;5096350;28;20187;-68
2022/06/25 08:40:32;;;;;;;13.87;8.80;;;12.70;99.90;;;;;;5078390;28;20191;-66
2022/06/25 08:43:02;;;;;;;13.20;8.27;;;12.60;99.90;;;;;;5096522;28;20247;-68
2022/06/25 08:45:29;;;;;;;10.53;7.13;;;12.50;99.90;;;;;;5096608;28;20170;-67
2022/06/25 08:47:59;;;;;;;11.43;7.43;;;12.40;99.90;;;;;;5096418;28;20184;-67
2022/06/25 08:50:27;;;;;;;9.93;6.80;;;12.40;99.90;;;;;;5096374;28;20722;-67
2022/06/25 08:52:56;;;;;;;11.57;6.57;;;12.30;99.90;;;;;;5096454;28;20174;-68
2022/06/25 08:55:38;;;;;;;9.70;6.13;;;12.20;99.90;;;;;;5096357;28;20182;-66
2022/06/25 08:58:07;;;;;;;9.60;6.70;;;12.10;99.90;;;;;;5096393;28;20202;-67
2022/06/25 09:00:37;;;;;;;9.23;5.60;;;12.10;99.90;;;;;;5096148;28;20168;-66
2022/06/25 09:03:05;;;;;;;9.70;6.20;;;12.00;99.90;;;;;;5096035;28;20209;-69
2022/06/25 09:05:35;;;;;;;9.97;6.33;;;11.90;99.90;;;;;;5096176;28;20206;-66
2022/06/25 09:08:05;;;;;;;12.00;6.10;;;11.90;99.90;;;;;;5096023;28;20171;-65
2022/06/25 09:10:33;;;;;;;8.70;5.50;;;11.90;99.90;;;;;;5097162;28;20643;-68
2022/06/25 09:13:03;;;;;;;10.00;5.57;;;11.90;99.90;;;;;;5100042;28;20663;-67
2022/06/25 09:15:33;;;;;;;11.30;6.17;;;11.80;99.90;;;;;;5100462;28;20182;-65
2022/06/25 09:18:20;;;;;;;13.73;6.10;;;11.80;99.90;;;;;;5096974;28;20181;-67
2022/06/25 09:21:02;;;;;;;11.20;5.87;;;11.60;99.90;;;;;;5095880;28;20239;-65
2022/06/25 09:23:31;;;;;;;11.63;5.73;;;11.60;99.90;;;;;;5095794;28;20196;-68
2022/06/25 09:26:07;;;;;;;10.33;5.83;;;11.50;99.90;;;;;;5095656;28;20232;-66
2022/06/25 09:28:44;;;;;;;17.87;6.50;;;11.50;99.90;;;;;;5095897;28;20187;-68
2022/06/25 09:31:11;;;;;;;10.17;6.20;;;11.50;99.90;;;;;;5095552;28;20253;-65
2022/06/25 09:33:40;;;;;;;11.13;5.77;;;11.50;99.90;;;;;;5077573;28;20181;-68
2022/06/25 09:36:11;;;;;;;13.00;5.87;;;11.60;99.90;;;;;;5095865;28;20172;-68
2022/06/25 09:38:51;;;;;;;11.87;5.87;;;11.50;99.90;;;;;;5095740;28;20630;-67
2022/06/25 09:41:19;;;;;;;11.37;6.57;;;11.40;99.90;;;;;;5095699;28;20214;-69
2022/06/25 09:43:48;;;;;;;10.70;5.80;;;11.30;99.90;;;;;;5095217;28;20580;-66
2022/06/25 09:46:16;;;;;;;11.57;6.23;;;11.20;99.90;;;;;;5095131;28;20260;-66
2022/06/25 09:48:44;;;;;;;7.70;5.37;;;11.20;99.90;;;;;;5077728;28;20180;-68
2022/06/25 09:51:26;;;;;;;8.17;4.93;;;11.20;99.90;;;;;;5096085;28;20267;-67
2022/06/25 09:53:57;;;;;;;10.27;4.97;;;11.10;99.90;;;;;;5095914;28;20538;-66
2022/06/25 09:56:34;;;;;;;10.80;5.87;;;11.00;99.90;;;;;;5095262;28;20236;-66
2022/06/25 09:59:02;;;;;;;13.40;5.90;;;11.00;99.90;;;;;;5095070;28;20651;-67
2022/06/25 10:01:32;;;;;;;13.10;6.93;;;11.00;99.90;;;;;;5094954;28;20224;-67
2022/06/25 10:04:03;;;;;;;11.30;7.53;;;11.10;99.90;;;;;;5095082;28;20206;-66
2022/06/25 10:06:35;;;;;;;13.57;7.73;;;11.20;99.90;;;;;;5095062;28;20168;-65
2022/06/25 10:09:05;;;;;;;13.10;7.93;;;11.30;99.90;;;;;;5094951;28;20177;-65
2022/06/25 10:11:34;;;;;;;9.30;7.27;;;11.40;99.90;;;;;;5094938;28;20177;-66
2022/06/25 10:14:02;;;;;;;12.87;7.27;;;11.20;99.90;;;;;;5076795;28;20275;-66
2022/06/25 10:16:30;;;;;;;11.97;7.83;;;11.10;99.90;;;;;;5094559;28;20294;-66
2022/06/25 10:18:59;;;;;;;11.67;7.63;;;11.00;99.90;;;;;;5094556;28;20201;-67
2022/06/25 10:21:26;;;;;;;12.40;7.10;;;10.90;99.90;;;;;;5094606;28;20167;-66
2022/06/25 10:23:57;;;;;;;11.93;7.37;;;10.90;99.90;;;;;;5094450;28;20233;-66
2022/06/25 10:26:25;;;;;;;14.33;7.23;;;10.80;99.90;;;;;;5094499;28;20216;-66
2022/06/25 10:28:53;;;;;;;9.93;7.13;;;10.80;99.90;;;;;;5094459;28;20258;-68
2022/06/25 10:31:20;;;;;;;12.07;7.40;;;10.70;99.90;;;;;;5094285;28;20179;-66
2022/06/25 10:34:04;;;;;;;11.33;7.60;;;10.70;99.90;;;;;;5094415;28;20237;-66
2022/06/25 10:36:45;;;;;;;13.33;7.80;;;10.60;99.90;;;;;;5094436;28;20228;-66
2022/06/25 10:39:27;;;;;;;9.47;6.60;;;10.60;99.90;;;;;;5094295;28;20266;-67
2022/06/25 10:45:16;;;;;;;9.90;6.63;;;10.60;99.90;;;;;;5094361;28;20257;-66
2022/06/25 10:47:58;;;;;;;7.53;5.30;;;10.50;99.90;;;;;;5094347;28;20672;-66
2022/06/25 10:50:25;;;;;;;8.40;5.50;;;10.50;99.90;;;;;;5094059;28;20208;-67
2022/06/25 10:53:07;;;;;;;8.10;5.83;;;10.40;99.90;;;;;;5094473;28;20176;-67
2022/06/25 10:55:48;;;;;;;14.53;7.43;;;10.40;99.90;;;;;;5093939;28;20361;-66
2022/06/25 10:58:23;;;;;;;52.03;29.20;;;10.30;99.90;;;;;;5093301;28;20590;-66
2022/06/25 11:01:03;;;;;;;13.47;8.83;;;10.30;99.90;;;;;;5075485;28;20179;-65
2022/06/25 11:03:30;;;;;;;4.90;3.77;;;10.30;99.90;;;;;;5093920;28;20305;-66
2022/06/25 11:06:17;;;;;;;7.30;3.97;;;10.20;99.90;;;;;;5094044;28;20180;-65
2022/06/25 11:08:45;;;;;;;4.50;3.50;;;10.30;99.90;;;;;;5094154;28;20661;-66
2022/06/25 11:11:13;;;;;;;6.17;3.37;;;10.30;99.90;;;;;;5093925;28;20176;-67
2022/06/25 11:13:43;;;;;;;4.90;3.23;;;10.30;99.90;;;;;;5093890;28;20637;-66
2022/06/25 11:16:15;;;;;;;6.33;3.40;;;10.30;99.90;;;;;;5093853;28;20681;-66
2022/06/25 11:18:50;;;;;;;5.63;3.13;;;10.20;99.90;;;;;;5093659;28;20179;-64
2022/06/25 11:21:37;;;;;;;5.20;3.50;;;10.20;99.90;;;;;;5093487;28;20183;-66
2022/06/25 11:24:24;;;;;;;7.87;3.60;;;10.20;99.90;;;;;;5093713;28;20229;-66
2022/06/25 11:29:53;;;;;;;5.23;3.30;;;10.10;99.90;;;;;;5093816;28;20546;-66
2022/06/25 11:32:26;;;;;;;5.27;3.30;;;10.10;99.90;;;;;;5075545;28;20662;-67
2022/06/25 11:35:00;;;;;;;3.73;2.70;;;10.20;99.90;;;;;;5093612;28;20172;-66
2022/06/25 11:37:30;;;;;;;5.53;3.27;;;10.30;99.90;;;;;;5075596;28;20256;-67
2022/06/25 11:39:58;;;;;;;6.80;3.10;;;10.10;99.90;;;;;;5093634;28;20236;-67
2022/06/25 11:42:26;;;;;;;4.77;3.43;;;10.00;99.90;;;;;;5075763;28;20178;-66
2022/06/25 11:44:56;;;;;;;6.27;2.90;;;10.00;99.90;;;;;;5075952;28;20280;-66
2022/06/25 11:47:26;;;;;;;5.13;3.10;;;9.90;99.90;;;;;;5093461;28;20274;-65
2022/06/25 11:49:54;;;;;;;3.97;3.20;;;9.90;99.90;;;;;;5093544;28;20725;-64
2022/06/25 11:52:25;;;;;;;7.43;3.13;;;9.80;99.90;;;;;;5093365;28;20236;-66
2022/06/25 11:54:53;;;;;;;5.73;3.10;;;9.80;99.90;;;;;;5093298;28;20183;-67
2022/06/25 11:57:27;;;;;;;5.60;3.03;;;9.80;99.90;;;;;;5093150;28;20199;-65
2022/06/25 11:59:56;;;;;;;4.37;2.70;;;9.70;99.90;;;;;;5093411;28;20170;-67
2022/06/25 12:02:24;;;;;;;6.53;2.80;;;9.60;99.90;;;;;;5093321;28;20694;-68
2022/06/25 12:04:57;;;;;;;4.27;2.93;;;9.60;99.90;;;;;;5093260;28;20237;-67
2022/06/25 12:07:28;;;;;;;4.53;2.87;;;9.50;99.90;;;;;;5093320;28;20241;-67
2022/06/25 12:09:59;;;;;;;4.40;2.90;;;9.40;99.90;;;;;;5094315;28;20766;-67
2022/06/25 12:12:27;;;;;;;6.87;3.90;;;9.40;99.90;;;;;;5097446;28;20622;-67
2022/06/25 12:14:59;;;;;;;4.53;3.07;;;9.50;99.90;;;;;;5097202;28;20179;-66
2022/06/25 12:17:35;;;;;;;5.87;3.40;;;9.50;99.90;;;;;;5096816;28;20187;-67
2022/06/25 12:20:14;;;;;;;6.30;3.63;;;9.40;99.90;;;;;;5097276;28;20195;-67
2022/06/25 12:22:50;;;;;;;7.37;4.17;;;9.30;99.90;;;;;;5096991;28;20637;-67
2022/06/25 12:25:33;;;;;;;6.13;3.57;;;9.30;99.90;;;;;;5097366;28;20703;-68
2022/06/25 12:28:01;;;;;;;5.33;3.50;;;9.20;99.90;;;;;;5097174;28;20214;-68
2022/06/25 12:30:33;;;;;;;4.83;3.30;;;9.10;99.90;;;;;;5096923;28;20186;-67
2022/06/25 12:33:14;;;;;;;5.10;3.53;;;9.10;99.90;;;;;;5096446;28;20191;-67
2022/06/25 12:35:43;;;;;;;9.00;4.13;;;9.00;99.90;;;;;;5096787;28;20171;-67
2022/06/25 12:38:14;;;;;;;4.33;3.40;;;8.90;99.90;;;;;;5096545;28;20181;-67
2022/06/25 12:40:50;;;;;;;6.10;4.03;;;9.00;99.90;;;;;;5096637;28;20199;-66
2022/06/25 12:43:18;;;;;;;7.10;3.27;;;8.90;99.90;;;;;;5096706;28;20214;-67
2022/06/25 12:45:47;;;;;;;5.53;3.67;;;8.90;99.90;;;;;;5096489;28;20664;-67
2022/06/25 12:48:26;;;;;;;6.77;3.80;;;8.80;99.90;;;;;;5096463;28;20197;-66
2022/06/25 12:50:54;;;;;;;6.63;4.03;;;8.80;99.90;;;;;;5096308;28;20179;-68
2022/06/25 12:53:22;;;;;;;5.53;3.50;;;8.90;99.90;;;;;;5096357;28;20186;-67
2022/06/25 12:55:50;;;;;;;5.07;3.37;;;8.90;99.90;;;;;;5096345;28;20183;-66
2022/06/25 12:58:18;;;;;;;5.23;3.50;;;8.90;99.90;;;;;;5096087;28;20262;-66
2022/06/25 13:00:47;;;;;;;4.13;2.87;;;8.80;99.90;;;;;;5096184;28;20187;-66
2022/06/25 13:03:15;;;;;;;9.23;4.00;;;8.80;99.90;;;;;;5095828;28;20198;-68
2022/06/25 13:05:42;;;;;;;6.10;3.20;;;8.80;99.90;;;;;;5095938;28;20211;-68
2022/06/25 13:08:10;;;;;;;4.97;3.40;;;8.80;99.90;;;;;;5096008;28;20175;-68
2022/06/25 13:10:37;;;;;;;7.43;3.87;;;8.80;99.90;;;;;;5095958;28;20183;-68
2022/06/25 13:13:04;;;;;;;6.30;3.60;;;8.80;99.90;;;;;;5096034;28;20194;-64